createdAt,value
2019-03-26T00:01:14.629Z,3.37
2019-03-26T00:03:43.643Z,4.03
2019-03-26T00:06:12.233Z,4.25
2019-03-26T00:08:41.871Z,3.60
2019-03-26T00:11:10.860Z,3.65
2019-03-26T00:13:39.318Z,3.22
2019-03-26T00:16:08.078Z,4.03
2019-03-26T00:18:37.302Z,3.90
2019-03-26T00:21:06.185Z,4.33
2019-03-26T00:23:35.016Z,3.55
2019-03-26T00:26:03.932Z,3.62
2019-03-26T00:28:33.207Z,2.65
2019-03-26T00:31:01.877Z,3.50
2019-03-26T00:33:36.203Z,3.87
2019-03-26T00:36:01.949Z,4.42
2019-03-26T00:38:30.826Z,4.30
2019-03-26T00:40:59.989Z,3.83
2019-03-26T00:43:28.705Z,3.05
2019-03-26T00:45:57.683Z,3.40
2019-03-26T00:48:26.431Z,3.42
2019-03-26T00:50:55.949Z,5.80
2019-03-26T00:53:24.772Z,3.72
2019-03-26T00:55:54.006Z,3.52
2019-03-26T00:58:23.070Z,4.12
2019-03-26T01:00:51.915Z,3.35
2019-03-26T01:03:20.720Z,4.10
2019-03-26T01:05:52.485Z,3.00
2019-03-26T01:08:20.126Z,2.72
2019-03-26T01:10:49.313Z,3.27
2019-03-26T01:13:18.222Z,3.52
2019-03-26T01:15:47.165Z,3.45
2019-03-26T01:18:16.418Z,3.70
2019-03-26T01:20:45.286Z,3.27
2019-03-26T01:23:14.365Z,3.20
2019-03-26T01:25:44.654Z,3.35
2019-03-26T01:28:13.465Z,3.50
2019-03-26T01:30:42.561Z,2.70
2019-03-26T01:33:11.242Z,3.30
2019-03-26T01:35:40.193Z,3.17
2019-03-26T01:38:09.286Z,3.02
2019-03-26T01:40:37.990Z,3.15
2019-03-26T01:43:06.451Z,3.80
2019-03-26T01:45:35.019Z,3.47
2019-03-26T01:48:03.670Z,2.75
2019-03-26T01:50:32.361Z,2.95
2019-03-26T01:53:00.918Z,3.02
2019-03-26T01:55:29.394Z,3.05
2019-03-26T01:57:57.978Z,3.08
2019-03-26T02:00:27.005Z,3.25
2019-03-26T02:02:55.540Z,2.65
2019-03-26T02:05:24.022Z,3.22
2019-03-26T02:07:52.674Z,2.52
2019-03-26T02:10:21.237Z,2.92
2019-03-26T02:12:50.000Z,2.80
2019-03-26T02:15:26.652Z,3.80
2019-03-26T02:17:55.094Z,3.30
2019-03-26T02:20:23.990Z,3.25
2019-03-26T02:22:52.755Z,2.70
2019-03-26T02:25:22.397Z,2.58
2019-03-26T02:27:51.602Z,2.87
2019-03-26T02:30:20.394Z,2.20
2019-03-26T02:32:48.885Z,3.22
2019-03-26T02:35:19.070Z,2.85
2019-03-26T02:37:47.903Z,2.37
2019-03-26T02:40:16.700Z,2.80
2019-03-26T02:42:45.532Z,3.52
2019-03-26T02:45:14.098Z,3.75
2019-03-26T02:47:42.659Z,2.72
2019-03-26T02:50:11.328Z,3.10
2019-03-26T02:52:39.977Z,3.35
2019-03-26T02:55:08.722Z,2.95
2019-03-26T02:57:37.930Z,2.65
2019-03-26T03:00:07.144Z,2.62
2019-03-26T03:02:35.802Z,3.12
2019-03-26T03:05:04.596Z,2.15
2019-03-26T03:07:33.269Z,2.60
2019-03-26T03:10:01.724Z,2.72
2019-03-26T03:12:30.271Z,2.33
2019-03-26T03:14:58.724Z,2.50
2019-03-26T03:17:27.429Z,2.65
2019-03-26T03:19:56.744Z,3.00
2019-03-26T03:22:25.303Z,3.30
2019-03-26T03:24:53.866Z,3.12
2019-03-26T03:27:22.331Z,3.33
2019-03-26T03:29:50.875Z,3.35
2019-03-26T03:32:19.443Z,2.62
2019-03-26T03:34:48.102Z,3.02
2019-03-26T03:37:16.568Z,3.15
2019-03-26T03:39:45.120Z,2.60
2019-03-26T03:42:13.622Z,1.70
2019-03-26T03:44:42.225Z,2.00
2019-03-26T03:47:12.239Z,2.70
2019-03-26T03:49:41.370Z,2.30
2019-03-26T03:52:12.139Z,2.27
2019-03-26T03:54:43.181Z,2.20
2019-03-26T03:57:14.787Z,2.83
2019-03-26T03:59:45.482Z,3.27
2019-03-26T04:02:14.301Z,2.70
2019-03-26T04:04:43.367Z,2.40
2019-03-26T04:07:12.087Z,2.17
2019-03-26T04:09:40.826Z,2.33
2019-03-26T04:12:09.290Z,2.37
2019-03-26T04:14:37.997Z,2.20
2019-03-26T04:17:06.831Z,2.67
2019-03-26T04:19:36.067Z,2.40
2019-03-26T04:22:05.017Z,2.87
2019-03-26T04:24:34.125Z,2.65
2019-03-26T04:27:03.039Z,3.40
2019-03-26T04:29:32.110Z,3.95
2019-03-26T04:32:00.833Z,2.92
2019-03-26T04:34:29.366Z,2.33
2019-03-26T04:36:58.418Z,2.75
2019-03-26T04:39:27.489Z,3.08
2019-03-26T04:41:56.449Z,3.45
2019-03-26T04:44:25.401Z,3.45
2019-03-26T04:46:54.632Z,3.17
2019-03-26T04:49:22.335Z,3.10
2019-03-26T04:51:51.562Z,2.30
2019-03-26T04:54:20.540Z,3.10
2019-03-26T04:56:49.789Z,2.65
2019-03-26T04:59:18.492Z,3.15
2019-03-26T05:01:47.564Z,3.10
2019-03-26T05:04:16.563Z,2.95
2019-03-26T05:06:45.543Z,3.55
2019-03-26T05:09:14.542Z,2.75
2019-03-26T05:11:43.506Z,2.50
2019-03-26T05:14:13.125Z,2.95
2019-03-26T05:16:42.098Z,3.55
2019-03-26T05:19:11.253Z,3.05
2019-03-26T05:21:40.381Z,4.25
2019-03-26T05:24:10.042Z,3.33
2019-03-26T05:26:39.286Z,2.90
2019-03-26T05:29:08.278Z,3.30
2019-03-26T05:31:39.372Z,3.92
2019-03-26T05:34:08.265Z,3.37
2019-03-26T05:36:50.405Z,3.10
2019-03-26T05:39:08.092Z,2.58
2019-03-26T05:41:37.234Z,3.27
2019-03-26T05:44:06.179Z,3.37
2019-03-26T05:46:35.010Z,3.17
2019-03-26T05:49:03.577Z,3.45
2019-03-26T05:51:32.436Z,3.17
2019-03-26T05:54:01.487Z,3.33
2019-03-26T05:56:30.725Z,3.27
2019-03-26T05:58:59.658Z,3.05
2019-03-26T06:01:28.500Z,3.30
2019-03-26T06:03:57.368Z,2.65
2019-03-26T06:06:26.635Z,3.15
2019-03-26T06:08:55.705Z,2.98
2019-03-26T06:11:24.839Z,3.50
2019-03-26T06:13:53.982Z,3.37
2019-03-26T06:16:22.995Z,4.08
2019-03-26T06:18:52.046Z,3.12
2019-03-26T06:21:21.197Z,3.58
2019-03-26T06:23:53.483Z,2.47
2019-03-26T06:26:21.334Z,3.77
2019-03-26T06:28:50.164Z,3.52
2019-03-26T06:31:18.767Z,3.95
2019-03-26T06:33:48.300Z,3.05
2019-03-26T06:36:17.398Z,3.60
2019-03-26T06:38:46.802Z,2.80
2019-03-26T06:41:15.653Z,3.20
2019-03-26T06:43:44.793Z,3.65
2019-03-26T06:46:13.586Z,4.85
2019-03-26T06:48:48.277Z,4.75
2019-03-26T06:51:16.249Z,3.15
2019-03-26T06:53:45.195Z,3.33
2019-03-26T06:56:14.378Z,3.65
2019-03-26T06:58:42.930Z,3.52
2019-03-26T07:01:11.768Z,3.98
2019-03-26T07:03:41.762Z,3.95
2019-03-26T07:06:11.377Z,2.10
2019-03-26T07:08:40.375Z,3.40
2019-03-26T07:11:11.221Z,2.83
2019-03-26T07:13:40.557Z,2.92
2019-03-26T07:16:09.376Z,3.85
2019-03-26T07:18:38.878Z,3.12
2019-03-26T07:21:08.182Z,2.95
2019-03-26T07:23:37.293Z,3.70
2019-03-26T07:26:06.299Z,3.15
2019-03-26T07:28:35.461Z,2.33
2019-03-26T07:31:04.418Z,3.00
2019-03-26T07:33:33.496Z,2.17
2019-03-26T07:36:02.295Z,2.40
2019-03-26T07:38:31.836Z,3.20
2019-03-26T07:41:00.754Z,1.70
2019-03-26T07:43:32.138Z,3.10
2019-03-26T07:46:01.154Z,2.00
2019-03-26T07:48:30.390Z,3.00
2019-03-26T07:50:59.518Z,2.30
2019-03-26T07:53:28.438Z,2.50
2019-03-26T07:55:57.094Z,2.00
2019-03-26T07:58:26.119Z,2.77
2019-03-26T08:00:54.694Z,2.37
2019-03-26T08:03:23.685Z,2.53
2019-03-26T08:05:52.638Z,3.13
2019-03-26T08:08:21.942Z,2.60
2019-03-26T08:10:50.759Z,2.50
2019-03-26T08:13:19.877Z,3.27
2019-03-26T08:15:48.950Z,3.50
2019-03-26T08:18:20.467Z,3.22
2019-03-26T08:20:49.280Z,3.25
2019-03-26T08:23:20.137Z,2.80
2019-03-26T08:25:49.162Z,2.50
2019-03-26T08:28:17.885Z,3.33
2019-03-26T08:30:46.337Z,2.80
2019-03-26T08:33:15.035Z,2.50
2019-03-26T08:35:46.520Z,2.60
2019-03-26T08:38:15.400Z,1.92
2019-03-26T08:40:43.989Z,2.87
2019-03-26T08:43:15.177Z,3.10
2019-03-26T08:45:43.846Z,3.00
2019-03-26T08:48:12.520Z,3.50
2019-03-26T08:50:41.310Z,2.50
2019-03-26T08:53:09.899Z,3.37
2019-03-26T08:55:38.492Z,3.37
2019-03-26T08:58:07.062Z,3.87
2019-03-26T09:00:35.493Z,2.70
2019-03-26T09:03:04.071Z,3.00
2019-03-26T09:05:32.716Z,2.97
2019-03-26T09:08:01.593Z,3.10
2019-03-26T09:10:30.339Z,3.00
2019-03-26T09:13:03.722Z,4.17
2019-03-26T09:15:32.299Z,2.73
2019-03-26T09:18:01.085Z,3.13
2019-03-26T09:20:29.845Z,3.77
2019-03-26T09:22:58.709Z,5.13
2019-03-26T09:25:30.395Z,4.00
2019-03-26T09:27:58.864Z,3.97
2019-03-26T09:30:27.334Z,5.07
2019-03-26T09:32:55.942Z,3.50
2019-03-26T09:35:24.486Z,3.60
2019-03-26T09:37:55.088Z,3.43
2019-03-26T09:40:23.710Z,2.77
2019-03-26T09:42:52.245Z,3.30
2019-03-26T09:45:20.824Z,4.10
2019-03-26T09:47:49.270Z,4.27
2019-03-26T09:50:31.049Z,3.63
2019-03-26T09:52:59.732Z,3.27
2019-03-26T09:55:28.295Z,3.90
2019-03-26T09:57:56.977Z,4.30
2019-03-26T10:00:26.706Z,4.50
2019-03-26T10:02:55.893Z,3.80
2019-03-26T10:05:24.375Z,6.27
2019-03-26T10:07:52.913Z,5.70
2019-03-26T10:10:21.474Z,4.53
2019-03-26T10:12:50.395Z,3.97
2019-03-26T10:15:18.865Z,4.67
2019-03-26T10:17:47.402Z,4.00
2019-03-26T10:20:15.960Z,3.43
2019-03-26T10:22:44.521Z,3.40
2019-03-26T10:25:15.327Z,3.60
2019-03-26T10:27:44.132Z,3.80
2019-03-26T10:30:15.074Z,3.57
2019-03-26T10:32:42.746Z,2.77
2019-03-26T10:35:17.054Z,3.83
2019-03-26T10:37:46.273Z,4.00
2019-03-26T10:40:28.606Z,4.77
2019-03-26T10:42:58.226Z,4.30
2019-03-26T10:45:27.121Z,4.63
2019-03-26T10:47:55.972Z,3.10
2019-03-26T10:50:25.097Z,4.00
2019-03-26T10:52:55.183Z,4.37
2019-03-26T10:55:24.300Z,4.00
2019-03-26T10:57:54.943Z,3.10
2019-03-26T11:00:24.349Z,3.47
2019-03-26T11:02:54.186Z,4.03
2019-03-26T11:05:24.511Z,3.70
2019-03-26T11:07:53.313Z,3.77
2019-03-26T11:10:21.985Z,4.40
2019-03-26T11:12:51.178Z,4.20
2019-03-26T11:15:19.709Z,4.27
2019-03-26T11:17:49.694Z,3.97
2019-03-26T11:20:18.347Z,3.90
2019-03-26T11:22:46.798Z,4.50
2019-03-26T11:25:15.686Z,3.90
2019-03-26T11:27:44.391Z,3.20
2019-03-26T11:30:14.188Z,3.20
2019-03-26T11:32:42.928Z,3.50
2019-03-26T11:35:11.729Z,3.57
2019-03-26T11:37:40.281Z,4.20
2019-03-26T11:40:09.283Z,3.23
2019-03-26T11:42:39.837Z,2.63
2019-03-26T11:45:08.972Z,4.00
2019-03-26T11:47:37.914Z,3.80
2019-03-26T11:50:07.632Z,3.30
2019-03-26T11:52:36.480Z,3.17
2019-03-26T11:55:05.625Z,3.50
2019-03-26T11:57:34.181Z,4.17
2019-03-26T12:00:04.754Z,3.50
2019-03-26T12:02:33.334Z,2.77
2019-03-26T12:05:01.998Z,3.40
2019-03-26T12:07:34.669Z,2.73
2019-03-26T12:10:04.074Z,3.40
2019-03-26T12:12:32.542Z,3.40
2019-03-26T12:15:01.093Z,2.70
2019-03-26T12:17:29.541Z,3.17
2019-03-26T12:19:59.131Z,2.67
2019-03-26T12:22:27.690Z,3.00
2019-03-26T12:24:56.670Z,3.20
2019-03-26T12:27:25.173Z,4.10
2019-03-26T12:29:53.617Z,3.57
2019-03-26T12:32:23.660Z,2.87
2019-03-26T12:34:52.448Z,4.30
2019-03-26T12:37:20.934Z,3.57
2019-03-26T12:39:59.399Z,3.50
2019-03-26T12:42:24.285Z,4.60
2019-03-26T12:44:52.932Z,3.40
2019-03-26T12:47:21.595Z,3.53
2019-03-26T12:49:50.813Z,3.00
2019-03-26T12:52:19.362Z,2.83
2019-03-26T12:54:48.927Z,2.67
2019-03-26T12:57:17.387Z,2.90
2019-03-26T12:59:45.969Z,2.90
2019-03-26T13:02:14.777Z,3.80
2019-03-26T13:04:43.492Z,3.73
2019-03-26T13:07:12.090Z,4.13
2019-03-26T13:09:44.144Z,3.33
2019-03-26T13:12:12.762Z,3.77
2019-03-26T13:14:41.376Z,5.27
2019-03-26T13:17:09.838Z,5.63
2019-03-26T13:19:38.402Z,6.07
2019-03-26T13:22:09.183Z,5.53
2019-03-26T13:24:38.025Z,3.93
2019-03-26T13:27:06.465Z,3.07
2019-03-26T13:29:34.918Z,3.30
2019-03-26T13:32:03.560Z,3.07
2019-03-26T13:34:34.292Z,3.50
2019-03-26T13:37:03.158Z,4.40
2019-03-26T13:39:31.881Z,2.83
2019-03-26T13:42:00.708Z,3.47
2019-03-26T13:44:34.740Z,2.93
2019-03-26T13:47:03.709Z,2.93
2019-03-26T13:49:31.490Z,4.27
2019-03-26T13:52:00.322Z,3.47
2019-03-26T13:54:29.522Z,4.00
2019-03-26T13:57:01.663Z,3.77
2019-03-26T13:59:30.832Z,4.53
2019-03-26T14:01:59.694Z,4.40
2019-03-26T14:04:28.511Z,4.77
2019-03-26T14:06:57.232Z,3.80
2019-03-26T14:09:29.190Z,4.33
2019-03-26T14:11:58.241Z,3.80
2019-03-26T14:14:27.461Z,3.37
2019-03-26T14:16:56.606Z,3.13
2019-03-26T14:19:28.451Z,3.90
2019-03-26T14:21:57.250Z,3.73
2019-03-26T14:24:26.085Z,5.47
2019-03-26T14:26:54.814Z,5.67
2019-03-26T14:29:24.812Z,3.37
2019-03-26T14:31:55.197Z,4.37
2019-03-26T14:34:23.898Z,3.10
2019-03-26T14:36:53.075Z,2.73
2019-03-26T14:39:22.042Z,4.07
2019-03-26T14:41:51.046Z,4.50
2019-03-26T14:44:20.991Z,4.10
2019-03-26T14:46:49.987Z,6.03
2019-03-26T14:49:19.043Z,4.60
2019-03-26T14:51:48.274Z,6.93
2019-03-26T14:54:19.865Z,4.57
2019-03-26T14:56:49.871Z,5.20
2019-03-26T14:59:18.454Z,5.00
2019-03-26T15:01:47.358Z,5.83
2019-03-26T15:04:15.802Z,4.87
2019-03-26T15:06:48.075Z,6.60
2019-03-26T15:09:17.227Z,5.57
2019-03-26T15:11:46.149Z,5.90
2019-03-26T15:14:15.251Z,6.87
2019-03-26T15:16:49.868Z,5.27
2019-03-26T15:19:18.590Z,5.23
2019-03-26T15:21:47.783Z,4.70
2019-03-26T15:24:16.952Z,4.20
2019-03-26T15:26:46.835Z,3.80
2019-03-26T15:29:16.203Z,4.20
2019-03-26T15:31:44.909Z,4.27
2019-03-26T15:34:13.616Z,3.37
2019-03-26T15:36:42.662Z,4.87
2019-03-26T15:39:15.077Z,3.53
2019-03-26T15:41:43.775Z,3.83
2019-03-26T15:44:12.609Z,3.70
2019-03-26T15:46:41.444Z,3.80
2019-03-26T15:49:10.539Z,3.20
2019-03-26T15:51:40.602Z,3.60
2019-03-26T15:54:11.870Z,3.87
2019-03-26T15:56:40.951Z,3.97
2019-03-26T15:59:09.000Z,3.47
2019-03-26T16:01:42.804Z,2.77
2019-03-26T16:04:11.266Z,3.70
2019-03-26T16:06:39.962Z,3.97
2019-03-26T16:09:08.673Z,3.37
2019-03-26T16:11:37.817Z,3.40
2019-03-26T16:14:09.409Z,3.87
2019-03-26T16:16:38.418Z,2.80
2019-03-26T16:19:07.503Z,3.40
2019-03-26T16:21:36.394Z,3.00
2019-03-26T16:24:09.463Z,2.57
2019-03-26T16:26:38.174Z,2.80
2019-03-26T16:29:06.638Z,5.20
2019-03-26T16:31:35.823Z,3.67
2019-03-26T16:34:04.746Z,2.60
2019-03-26T16:36:33.303Z,3.23
2019-03-26T16:39:02.367Z,2.40
2019-03-26T16:41:31.072Z,2.53
2019-03-26T16:44:00.325Z,3.60
2019-03-26T16:46:29.159Z,4.00
2019-03-26T16:48:58.062Z,3.73
2019-03-26T16:51:27.313Z,2.83
2019-03-26T16:53:56.018Z,2.70
2019-03-26T16:56:24.925Z,2.93
2019-03-26T16:58:53.912Z,3.07
2019-03-26T17:01:23.160Z,3.47
2019-03-26T17:03:52.213Z,2.93
2019-03-26T17:06:20.998Z,2.93
2019-03-26T17:08:50.090Z,3.10
2019-03-26T17:11:19.138Z,4.07
2019-03-26T17:13:47.894Z,3.03
2019-03-26T17:16:16.886Z,3.60
2019-03-26T17:18:45.718Z,4.00
2019-03-26T17:21:14.469Z,2.80
2019-03-26T17:23:43.201Z,3.10
2019-03-26T17:26:15.477Z,4.20
2019-03-26T17:28:44.227Z,2.97
2019-03-26T17:31:13.025Z,3.53
2019-03-26T17:33:42.078Z,4.27
2019-03-26T17:36:10.813Z,3.90
2019-03-26T17:38:39.497Z,4.47
2019-03-26T17:41:08.246Z,4.00
2019-03-26T17:43:37.502Z,5.00
2019-03-26T17:46:07.093Z,4.00
2019-03-26T17:48:35.653Z,4.20
2019-03-26T17:51:04.617Z,4.93
2019-03-26T17:53:33.853Z,3.60
2019-03-26T17:56:02.765Z,5.10
2019-03-26T17:58:31.725Z,5.10
2019-03-26T18:01:00.418Z,4.20
2019-03-26T18:03:30.531Z,4.70
2019-03-26T18:05:59.443Z,4.47
2019-03-26T18:08:28.373Z,5.00
2019-03-26T18:10:57.265Z,4.70
2019-03-26T18:13:25.748Z,5.37
2019-03-26T18:15:54.423Z,7.20
2019-03-26T18:18:23.324Z,5.20
2019-03-26T18:20:51.985Z,6.83
2019-03-26T18:23:20.539Z,5.80
2019-03-26T18:25:49.032Z,6.13
2019-03-26T18:28:18.322Z,5.80
2019-03-26T18:30:47.433Z,5.30
2019-03-26T18:33:16.230Z,5.63
2019-03-26T18:35:45.425Z,5.67
2019-03-26T18:38:15.093Z,5.13
2019-03-26T18:40:43.759Z,5.80
2019-03-26T18:43:14.765Z,6.10
2019-03-26T18:45:43.812Z,5.87
2019-03-26T18:48:12.534Z,5.07
2019-03-26T18:50:41.458Z,5.73
2019-03-26T18:53:11.496Z,5.60
2019-03-26T18:55:40.307Z,4.70
2019-03-26T18:58:08.873Z,5.50
2019-03-26T19:00:38.237Z,5.40
2019-03-26T19:03:07.202Z,4.87
2019-03-26T19:05:36.041Z,6.37
2019-03-26T19:08:05.218Z,4.63
2019-03-26T19:10:34.234Z,6.27
2019-03-26T19:13:03.459Z,4.93
2019-03-26T19:15:32.158Z,4.40
2019-03-26T19:18:00.954Z,4.40
2019-03-26T19:20:31.609Z,4.17
2019-03-26T19:23:00.375Z,5.00
2019-03-26T19:25:29.022Z,5.20
2019-03-26T19:27:57.581Z,4.30
2019-03-26T19:30:26.622Z,4.47
2019-03-26T19:32:57.818Z,4.67
2019-03-26T19:35:26.532Z,4.73
2019-03-26T19:37:55.330Z,4.93
2019-03-26T19:40:24.313Z,5.07
2019-03-26T19:42:53.289Z,4.27
2019-03-26T19:45:23.692Z,4.37
2019-03-26T19:47:52.593Z,5.00
2019-03-26T19:50:21.491Z,5.70
2019-03-26T19:52:50.454Z,4.37
2019-03-26T19:55:19.766Z,5.97
2019-03-26T19:57:48.967Z,4.57
2019-03-26T20:00:18.662Z,6.20
2019-03-26T20:02:47.561Z,4.83
2019-03-26T20:05:16.382Z,5.50
2019-03-26T20:07:45.406Z,5.00
2019-03-26T20:10:15.352Z,7.63
2019-03-26T20:12:44.453Z,5.33
2019-03-26T20:15:15.327Z,5.57
2019-03-26T20:17:44.363Z,5.90
2019-03-26T20:20:13.321Z,7.03
2019-03-26T20:22:42.487Z,5.50
2019-03-26T20:25:12.798Z,4.53
2019-03-26T20:27:41.987Z,4.80
2019-03-26T20:30:11.753Z,5.50
2019-03-26T20:32:43.967Z,8.10
2019-03-26T20:35:13.035Z,5.03
2019-03-26T20:37:41.887Z,6.03
2019-03-26T20:40:11.152Z,5.47
2019-03-26T20:42:40.438Z,5.63
2019-03-26T20:45:09.928Z,6.03
2019-03-26T20:47:39.253Z,6.80
2019-03-26T20:50:09.554Z,4.90
2019-03-26T20:52:39.974Z,6.70
2019-03-26T20:55:10.642Z,5.83
2019-03-26T20:57:40.054Z,7.47
2019-03-26T21:00:12.051Z,6.00
2019-03-26T21:02:40.231Z,6.07
2019-03-26T21:05:08.309Z,7.03
2019-03-26T21:07:37.614Z,5.70
2019-03-26T21:10:06.707Z,5.33
2019-03-26T21:12:35.631Z,6.17
2019-03-26T21:15:05.101Z,6.20
2019-03-26T21:17:34.177Z,6.30
2019-03-26T21:20:03.192Z,5.30
2019-03-26T21:22:32.274Z,5.93
2019-03-26T21:25:00.911Z,6.27
2019-03-26T21:27:29.886Z,6.30
2019-03-26T21:30:10.206Z,7.03
2019-03-26T21:32:29.422Z,7.17
2019-03-26T21:34:58.449Z,6.50
2019-03-26T21:37:27.477Z,5.13
2019-03-26T21:39:56.403Z,5.37
2019-03-26T21:42:25.644Z,6.37
2019-03-26T21:44:54.378Z,5.60
2019-03-26T21:47:23.329Z,5.40
2019-03-26T21:49:51.907Z,5.90
2019-03-26T21:52:21.116Z,6.30
2019-03-26T21:54:49.850Z,5.70
2019-03-26T21:57:18.419Z,6.70
2019-03-26T21:59:47.742Z,6.37
2019-03-26T22:02:16.477Z,6.50
2019-03-26T22:04:45.195Z,7.33
2019-03-26T22:07:14.151Z,7.30
2019-03-26T22:09:43.312Z,7.10
2019-03-26T22:12:12.582Z,5.97
2019-03-26T22:14:41.538Z,6.33
2019-03-26T22:17:10.086Z,6.50
2019-03-26T22:19:39.066Z,6.47
2019-03-26T22:22:09.968Z,6.80
2019-03-26T22:24:38.486Z,7.03
2019-03-26T22:27:06.953Z,6.50
2019-03-26T22:29:35.397Z,7.03
2019-03-26T22:32:03.933Z,6.97
2019-03-26T22:34:33.258Z,7.27
2019-03-26T22:37:03.160Z,7.00
2019-03-26T22:39:32.126Z,7.30
2019-03-26T22:42:01.093Z,7.00
2019-03-26T22:44:31.729Z,6.57
2019-03-26T22:47:00.918Z,8.10
2019-03-26T22:49:29.653Z,7.60
2019-03-26T22:51:58.199Z,8.17
2019-03-26T22:54:26.910Z,7.53
2019-03-26T22:56:55.621Z,7.93
2019-03-26T22:59:24.965Z,7.90
2019-03-26T23:01:54.191Z,8.87
2019-03-26T23:04:22.836Z,7.43
2019-03-26T23:06:52.007Z,8.93
2019-03-26T23:09:20.764Z,8.70
2019-03-26T23:11:49.326Z,7.97
2019-03-26T23:14:17.918Z,8.20
2019-03-26T23:16:47.096Z,8.30
2019-03-26T23:19:15.986Z,9.87
2019-03-26T23:21:45.088Z,9.13
2019-03-26T23:24:14.583Z,9.80
2019-03-26T23:26:43.399Z,8.83
2019-03-26T23:29:12.473Z,9.10
2019-03-26T23:31:41.537Z,10.03
2019-03-26T23:34:10.606Z,10.00
2019-03-26T23:36:39.057Z,10.03
2019-03-26T23:39:07.758Z,11.03
2019-03-26T23:41:39.605Z,10.50
2019-03-26T23:44:07.763Z,10.50
2019-03-26T23:46:36.773Z,11.33
2019-03-26T23:49:05.837Z,11.15
2019-03-26T23:51:34.858Z,10.90
2019-03-26T23:54:03.416Z,11.53
2019-03-26T23:56:32.424Z,11.48
2019-03-26T23:59:02.212Z,10.28
